Flight Track Log - Related Links

Times and Time Zones

All times are in EDT time to prevent confusion due to time zone crossing. See the CEB405 flight status page for this flight to view local times or setup timezone preferences in your user account.

Time Position Orientation Groundspeed Altitude Reporting Facility
EDT Latitude Longitude Course Direction KTS MPH feet Rate Location/Type
Sun 08:35:15 AM 17.4950 120.4480 186° South 403 464 21,200  Level FlightAware ADS-B
Sun 08:35:51 AM 17.4290 120.4410 186° South 411 473 22,200 822 Climbing FlightAware ADS-B
Sun 08:36:28 AM 17.3700 120.4340 186° South 411 473 22,200 2,535 Level FlightAware ADS-B
Sun 08:37:02 AM 17.2940 120.4250 186° South 400 460 25,200 3,636 Climbing FlightAware ADS-B
Sun 08:37:34 AM 17.2350 120.4180 186° South 402 463 26,200 2,029 Climbing FlightAware ADS-B
Sun 08:38:10 AM 17.1680 120.4100 187° South 399 459 27,500 2,057 Climbing FlightAware ADS-B
Sun 08:38:44 AM 17.1040 120.4020 187° South 399 459 28,600 1,343 Climbing FlightAware ADS-B
Sun 08:39:17 AM 17.0440 120.3950 186° South 394 453 29,000 329 Climbing FlightAware ADS-B
Sun 08:39:57 AM 16.9720 120.3870 186° South 392 451 29,000  Level FlightAware ADS-B
Sun 08:40:39 AM 16.9080 120.3800 186° South 392 451 29,000  Level FlightAware ADS-B
Sun 08:41:13 AM 16.8350 120.3710 187° South 392 451 29,000  Level FlightAware ADS-B
Sun 08:41:49 AM 16.7690 120.3630 187° South 394 453 29,000  Level FlightAware ADS-B
Sun 08:42:31 AM 16.6940 120.3630 180° South 393 452 29,000  Level FlightAware ADS-B
Sun 08:43:12 AM 16.6170 120.3730 173° South 395 455 29,000  Level FlightAware ADS-B
Sun 08:43:49 AM 16.5480 120.3820 173° South 395 455 29,000  Level FlightAware ADS-B
Sun 08:44:20 AM 16.4970 120.3890 173° South 395 455 29,000  Level FlightAware ADS-B
Sun 08:44:58 AM 16.4230 120.3990 173° South 396 456 29,000  Level FlightAware ADS-B
Sun 08:45:34 AM 16.3580 120.4070 173° South 395 455 29,000  Level FlightAware ADS-B
Sun 08:46:07 AM 16.3030 120.4140 173° South 394 453 29,000  Level FlightAware ADS-B
Sun 08:46:45 AM 16.2390 120.4230 172° South 394 453 29,000  Level FlightAware ADS-B
Sun 08:47:25 AM 16.1780 120.4320 172° South 394 453 29,000  Level FlightAware ADS-B
Sun 08:48:02 AM 16.1210 120.4410 171° South 394 453 29,000  Level FlightAware ADS-B
Sun 08:48:38 AM 16.0660 120.4490 172° South 394 453 29,000  Level FlightAware ADS-B
Sun 08:49:14 AM 16.0110 120.4570 172° South 394 453 29,000 -3,667 Level FlightAware ADS-B
Sun 08:49:50 AM 15.8930 120.4680 175° South 392 451 24,600 -4,714 Descending FlightAware ADS-B
Sun 08:50:24 AM 15.8350 120.4760 172° South 389 448 23,500 -2,000 Descending FlightAware ADS-B
Sun 08:51:02 AM 15.7660 120.4850 173° South 385 443 22,200 -2,028 Descending FlightAware ADS-B
Sun 08:51:35 AM 15.7060 120.4930 173° South 382 440 21,100 -1,944 Descending FlightAware ADS-B
Sun 08:52:13 AM 15.6390 120.5020 173° South 378 435 19,900 -1,833 Descending FlightAware ADS-B
Sun 08:52:47 AM 15.5810 120.5090 173° South 376 433 18,900 -1,765 Descending FlightAware ADS-B
Sun 08:53:21 AM 15.5210 120.5170 173° South 373 429 17,900 -1,629 Descending FlightAware ADS-B
Sun 08:53:57 AM 15.4590 120.5250 173° South 371 427 17,000 -574 Descending FlightAware ADS-B
Sun 08:54:55 AM 15.3740 120.5370 172° South 370 426 17,000  Level FlightAware ADS-B
Sun 08:55:31 AM 15.3220 120.5440 173° South 370 426 17,000 -400 Level FlightAware ADS-B
Sun 08:56:10 AM 15.2450 120.5530 174° South 368 423 16,500 -811 Descending FlightAware ADS-B
Sun 08:56:45 AM 15.1830 120.5650 169° South 362 417 16,000 -625 Descending FlightAware ADS-B
Sun 08:56:58 AM 15.1660 120.5740 153° Southeast 349 402 16,000  Level FlightAware ADS-B
Sun 08:57:35 AM 15.1170 120.6080 146° Southeast 320 368 16,000 -269 Level FlightAware ADS-B
Sun 08:58:05 AM 15.0810 120.6330 146° Southeast 305 351 15,700 -957 Descending FlightAware ADS-B
Sun 08:58:44 AM 15.0350 120.6640 147° Southeast 302 348 14,900 -1,280 Descending FlightAware ADS-B
Sun 08:59:20 AM 14.9940 120.6920 147° Southeast 301 346 14,100 -794 Descending FlightAware ADS-B
Sun 08:59:52 AM 14.9560 120.7180 147° Southeast 299 344 14,000 -646 Descending FlightAware ADS-B
Sun 09:00:25 AM 14.9180 120.7430 148° Southeast 296 341 13,400 -1,562 Descending FlightAware ADS-B
Sun 09:01:05 AM 14.8730 120.7740 146° Southeast 308 354 12,100 -1,840 Descending FlightAware ADS-B
Sun 09:01:40 AM 14.8280 120.8020 149° Southeast 309 356 11,100 -1,660 Descending FlightAware ADS-B
Sun 09:01:52 AM 14.8130 120.8030 176° South 309 356 10,800 -1,277 Descending FlightAware ADS-B
Sun 09:02:27 AM 14.7620 120.7960 188° South 298 343 10,100 -1,368 Descending FlightAware ADS-B
Sun 09:02:49 AM 14.7310 120.7910 189° South 295 339 9,500 -1,143 Descending FlightAware ADS-B
Sun 09:03:09 AM 14.7050 120.7870 188° South 277 319 9,300 -682 Descending FlightAware ADS-B
Sun 09:03:33 AM 14.6760 120.7820 189° South 257 296 9,000 -698 Descending FlightAware ADS-B
Sun 09:03:52 AM 14.6550 120.7790 188° South 244 281 8,800 -750 Descending FlightAware ADS-B
Sun 09:04:13 AM 14.6320 120.7750 190° South 224 258 8,500 -769 Descending FlightAware ADS-B
Sun 09:04:31 AM 14.6140 120.7730 186° South 213 245 8,300 -1,200 Descending FlightAware ADS-B
Sun 09:04:53 AM 14.5920 120.7700 188° South 213 245 7,700 -1,560 Descending FlightAware ADS-B
Sun 09:05:21 AM 14.5630 120.7690 182° South 218 251 7,000 -1,440 Descending FlightAware ADS-B
Sun 09:05:43 AM 14.5430 120.7650 191° South 215 247 6,500 -1,535 Descending FlightAware ADS-B
Sun 09:06:04 AM 14.5210 120.7620 188° South 212 244 5,900 -1,692 Descending FlightAware ADS-B
Sun 09:06:22 AM 14.5040 120.7580 193° South 211 243 5,400 -698 Descending FlightAware ADS-B
Sun 09:06:47 AM 14.4830 120.7560 185° South 211 243 5,400 -1,291 Level FlightAware ADS-B
Sun 09:07:41 AM 14.4370 120.7910 144° Southeast 196 226 3,700 -1,579 Descending FlightAware ADS-B
Sun 09:08:03 AM 14.4200 120.8010 150° Southeast 183 211 3,400 -774 Descending FlightAware ADS-B
Sun 09:08:12 AM 14.4140 120.8050 147° Southeast 178 205 3,300 -400 Descending FlightAware ADS-B
Sun 09:08:18 AM 14.4110 120.8090 128° Southeast 173 199 3,300 -571 Level FlightAware ADS-B
Sun 09:08:33 AM 14.4070 120.8200 111° Southeast 166 191 3,100 -632 Descending FlightAware ADS-B
Sun 09:08:37 AM 14.4070 120.8230 90° East 163 188 3,100 -231 Level FlightAware ADS-B
Sun 09:08:59 AM 14.4090 120.8400 83° East 161 185 3,000 -387 Descending FlightAware ADS-B
Sun 09:09:08 AM 14.4120 120.8460 63° Northeast 161 185 2,900 -222 Descending FlightAware ADS-B
Sun 09:09:26 AM 14.4190 120.8580 59° Northeast 159 183 2,900 -150 Level FlightAware ADS-B
Sun 09:09:48 AM 14.4270 120.8730 61° Northeast 158 182 2,800 -522 Descending FlightAware ADS-B
Sun 09:10:12 AM 14.4360 120.8880 58° Northeast 156 180 2,500 -837 Descending FlightAware ADS-B
Sun 09:10:31 AM 14.4430 120.9010 61° Northeast 153 176 2,200 -769 Descending FlightAware ADS-B
Sun 09:10:51 AM 14.4490 120.9130 63° Northeast 145 167 2,000 -750 Descending FlightAware ADS-B
Sun 09:11:03 AM 14.4540 120.9210 57° Northeast 140 161 1,800 -714 Descending FlightAware ADS-B
Sun 09:11:33 AM 14.4630 120.9370 60° Northeast 123 142 1,500 -575 Descending FlightAware ADS-B
Sun 09:12:16 AM 14.4720 120.9540 61° Northeast 121 139 1,100 -610 Descending FlightAware ADS-B
Sun 09:12:32 AM 14.4790 120.9660 59° Northeast 121 139 900 -667 Descending FlightAware ADS-B
Sun 09:12:52 AM 14.4840 120.9760 63° Northeast 121 139 700 -600 Descending FlightAware ADS-B
Sun 09:13:12 AM 14.4890 120.9850 60° Northeast 121 139 500 -632 Descending FlightAware ADS-B
Sun 09:13:30 AM 14.4960 120.9960 57° Northeast 125 144 300 -333 Descending FlightAware ADS-B
Sun 09:14:06 AM 14.5040 121.0120 63° Northeast 125 144 200 -167 Descending FlightAware ADS-B
Sun 09:16:00 AM 14.5086 121.0196 58° Northeast  Level Estimated
Sun 09:17:00 AM 14.5086 121.0196 162° South  Level Estimated
Sun 09:18:00 AM 14.5086 121.0196 162° South  Level Estimated
Sun 09:19:00 AM 14.5086 121.0196 162° South  Level Estimated
Sun 09:20:00 AM 14.5086 121.0196 162° South  Level Estimated
Sun 09:21:00 AM 14.5086 121.0196 162° South  Level Estimated
Sun 09:22:00 AM 14.5086 121.0196 162° South  Level Estimated
Sun 09:23:00 AM 14.5086 121.0196 162° South  Level Estimated
Sun 09:24:00 AM 14.5086 121.0196 162° South  Level Estimated
Sun 09:25:00 AM 14.5086 121.0196 162° South  Level Estimated
Sun 09:26:00 AM 14.5086 121.0196 162° South  Level Estimated
Sun 09:27:00 AM 14.5086 121.0196 162° South  Level Estimated
Sun 09:28:00 AM 14.5086 121.0196 162° South  Level Estimated
Sun 09:29:00 AM 14.5086 121.0196 162° South  Level Estimated
Sun 09:30:00 AM 14.5086 121.0196 162° South  Level Estimated
Sun 09:31:00 AM 14.5086 121.0196 162° South  Level Estimated
Sun 09:32:00 AM 14.5086 121.0196 162° South  Level Estimated
Sun 09:33:00 AM 14.5086 121.0196 162° South  Level Estimated
Sun 09:34:00 AM 14.5086 121.0196 162° South  Level Estimated
Sun 09:35:00 AM 14.5086 121.0196 162° South  Level Estimated
Sun 09:36:00 AM 14.5086 121.0196 162° South  Level Estimated
Sun 09:37:00 AM 14.5086 121.0196 162° South  Level Estimated
Sun 09:38:00 AM 14.5086 121.0196 162° South  Level Estimated
Sun 09:39:00 AM 14.5086 121.0196 162° South  Level Estimated
Sun 09:40:00 AM 14.5086 121.0196 162° South  Level Estimated
Sun 09:41:00 AM 14.5086 121.0196 162° South  Level Estimated
Sun 09:42:00 AM 14.5086 121.0196 162° South  Level Estimated
Sun 09:43:00 AM 14.5086 121.0196 162° South  Level Estimated
Sun 09:44:00 AM 14.5086 121.0196 162° South  Level Estimated
Sun 09:45:00 AM 14.5086 121.0196 162° South  Level Estimated
Sun 09:46:00 AM 14.5086 121.0196 162° South  Level Estimated
Sun 09:47:00 AM 14.5086 121.0196 162° South  Level Estimated
Sun 09:48:00 AM 14.5086 121.0196 162° South  Level Estimated
Sun 09:49:00 AM 14.5086 121.0196 162° South  Level Estimated
Sun 09:50:00 AM 14.5086 121.0196 162° South  Level Estimated
Sun 09:51:00 AM 14.5086 121.0196 162° South  Level Estimated

Login

Don't have an account? Register now (free) for customized features, flight alerts, and more!